Time;durP1;ratioP1;P1;durP2;ratioP2;P2;SDS_P1;SDS_P2;PMS_P1;PMS_P2;Temp;Humidity;BMP_temperature;BMP_pressure;BME280_temperature;BME280_humidity;BME280_pressure;Samples;Min_cycle;Max_cycle;Signal;HPM_P1;HPM_P2
2023/01/07 00:01:17;;;;;;;6.28;4.43;;;7.40;99.90;;;;;;10286613;23;20005;-82
2023/01/07 00:05:18;;;;;;;6.57;3.92;;;7.20;99.90;;;;;;10287329;23;20023;-82
2023/01/07 00:09:38;;;;;;;7.30;4.45;;;7.20;99.90;;;;;;10287420;23;20009;-82
2023/01/07 00:13:39;;;;;;;;;;;7.10;99.90;;;;;;10286985;23;20019;-82
2023/01/07 00:17:39;;;;;;;9.93;5.07;;;7.40;99.90;;;;;;10287723;23;19904;-83
2023/01/07 00:21:41;;;;;;;6.85;4.45;;;7.50;99.90;;;;;;10287194;23;20055;-83
2023/01/07 00:25:41;;;;;;;7.90;5.20;;;7.30;99.90;;;;;;10288438;23;20005;-83
2023/01/07 00:29:42;;;;;;;7.28;4.28;;;7.20;99.90;;;;;;10287655;23;20008;-83
2023/01/07 00:33:50;;;;;;;10.35;4.90;;;7.30;99.90;;;;;;10286521;23;20391;-83
2023/01/07 00:37:57;;;;;;;7.13;4.15;;;7.20;99.90;;;;;;10288637;23;20419;-83
2023/01/07 00:46:17;;;;;;;5.78;3.72;;;7.00;99.90;;;;;;10288707;23;20015;-82
2023/01/07 00:50:22;;;;;;;6.13;4.03;;;7.20;99.90;;;;;;10287255;23;20017;-83
2023/01/07 00:54:23;;;;;;;5.40;3.40;;;7.00;99.90;;;;;;10288179;23;20001;-82
2023/01/07 00:58:24;;;;;;;6.07;3.85;;;7.00;99.90;;;;;;10288748;23;20067;-82
2023/01/07 01:02:25;;;;;;;9.25;4.55;;;6.80;99.90;;;;;;10288930;23;20000;-82
2023/01/07 01:06:35;;;;;;;;;;;;;;;;;;;;;
2023/01/07 01:10:37;;;;;;;6.28;3.97;;;7.00;99.90;;;;;;10288853;23;19996;-82
2023/01/07 01:14:37;;;;;;;7.20;4.40;;;7.20;99.90;;;;;;10286637;23;20000;-83
2023/01/07 01:18:38;;;;;;;6.15;4.18;;;7.10;99.90;;;;;;10288433;23;20008;-83
2023/01/07 01:22:39;;;;;;;7.85;4.35;;;7.10;99.90;;;;;;10287723;23;20451;-82
2023/01/07 01:26:39;;;;;;;5.85;4.03;;;7.00;99.90;;;;;;10288798;23;20011;-83
2023/01/07 01:30:40;;;;;;;6.15;3.90;;;7.00;99.90;;;;;;10289423;23;20016;-83
2023/01/07 01:34:40;;;;;;;5.32;3.63;;;6.90;99.90;;;;;;10287546;23;20039;-83
2023/01/07 01:38:41;;;;;;;6.88;4.00;;;6.80;99.90;;;;;;10287785;23;20095;-83
2023/01/07 01:42:42;;;;;;;10.48;4.65;;;6.80;99.90;;;;;;10289330;23;20015;-82
2023/01/07 01:46:44;;;;;;;6.28;3.97;;;6.70;99.90;;;;;;10289924;23;20590;-83
2023/01/07 01:51:05;;;;;;;5.10;3.67;;;6.80;99.90;;;;;;10289377;23;20048;-82
2023/01/07 01:55:19;;;;;;;6.38;3.78;;;6.70;99.90;;;;;;10218351;23;20032;-82
2023/01/07 01:59:24;;;;;;;6.97;4.15;;;7.10;99.90;;;;;;10285176;23;20004;-82
2023/01/07 02:03:45;;;;;;;6.63;3.97;;;7.00;99.90;;;;;;10284603;23;20033;-82
2023/01/07 02:07:57;;;;;;;7.25;4.20;;;7.10;99.90;;;;;;10284061;23;20339;-81
2023/01/07 02:17:16;;;;;;;4.97;3.60;;;6.80;99.90;;;;;;10231307;23;20426;-82
2023/01/07 02:21:30;;;;;;;6.20;3.53;;;6.70;99.90;;;;;;10283374;23;20004;-82
2023/01/07 02:25:40;;;;;;;5.97;3.67;;;6.60;99.90;;;;;;10277105;23;20091;-81
2023/01/07 02:30:22;;;;;;;5.82;3.72;;;6.60;99.90;;;;;;10282782;23;20015;-82
2023/01/07 02:34:41;;;;;;;6.32;4.18;;;6.60;99.90;;;;;;10061765;23;20093;-82
2023/01/07 02:39:01;;;;;;;6.25;3.72;;;6.50;99.90;;;;;;10171804;23;20012;-81
2023/01/07 02:43:52;;;;;;;7.47;4.30;;;6.70;99.90;;;;;;10285483;23;20009;-82
2023/01/07 02:48:00;;;;;;;6.40;4.22;;;6.80;99.90;;;;;;10203878;23;20009;-81
2023/01/07 02:52:17;;;;;;;7.53;4.68;;;6.80;99.90;;;;;;10285870;23;20019;-80
2023/01/07 02:56:43;;;;;;;6.18;3.70;;;6.90;99.90;;;;;;10285105;23;20788;-81
2023/01/07 03:00:59;;;;;;;7.05;4.10;;;7.20;99.90;;;;;;10287362;23;20067;-81
2023/01/07 03:05:40;;;;;;;5.90;3.75;;;7.20;99.90;;;;;;10286849;23;20052;-81
2023/01/07 03:09:47;;;;;;;6.25;3.72;;;6.90;99.90;;;;;;10286007;23;20063;-82
2023/01/07 03:13:57;;;;;;;6.55;3.83;;;6.70;99.90;;;;;;10284909;23;20005;-81
2023/01/07 03:18:09;;;;;;;6.22;4.20;;;6.70;99.90;;;;;;10286296;23;20060;-82
2023/01/07 03:22:11;;;;;;;6.03;3.80;;;6.60;99.90;;;;;;10285166;23;20004;-81
2023/01/07 03:26:14;;;;;;;6.85;4.35;;;6.80;99.90;;;;;;10284951;23;20009;-81
2023/01/07 03:30:17;;;;;;;7.22;4.20;;;6.80;99.90;;;;;;10285408;23;20005;-81
2023/01/07 03:34:21;;;;;;;8.88;4.22;;;6.60;99.90;;;;;;10285125;23;20004;-82
2023/01/07 03:38:23;;;;;;;5.80;3.88;;;6.50;99.90;;;;;;10284668;23;20000;-81
2023/01/07 03:42:39;;;;;;;7.38;4.90;;;6.40;99.90;;;;;;10284165;23;20009;-81
2023/01/07 03:46:40;;;;;;;7.30;4.38;;;6.70;99.90;;;;;;10284538;23;20005;-81
2023/01/07 03:50:40;;;;;;;7.25;3.85;;;6.80;99.90;;;;;;10286050;23;20087;-81
2023/01/07 03:54:41;;;;;;;5.20;3.75;;;6.90;99.90;;;;;;10283561;23;20143;-81
2023/01/07 03:58:41;;;;;;;6.07;4.05;;;6.80;99.90;;;;;;10284154;23;20009;-81
2023/01/07 04:02:42;;;;;;;7.38;4.20;;;7.10;99.90;;;;;;10284369;23;20355;-81
2023/01/07 04:06:43;;;;;;;6.80;4.05;;;7.00;99.90;;;;;;10284909;23;20092;-82
2023/01/07 04:10:43;;;;;;;6.07;3.90;;;6.90;99.90;;;;;;10285472;23;20071;-83
2023/01/07 04:14:44;;;;;;;6.18;3.90;;;6.80;99.90;;;;;;10286969;23;20004;-82
2023/01/07 04:18:44;;;;;;;5.55;3.55;;;6.80;99.90;;;;;;10285196;23;19992;-82
2023/01/07 04:22:45;;;;;;;7.80;4.15;;;7.10;99.90;;;;;;10285267;23;20009;-82
2023/01/07 04:26:46;;;;;;;5.60;3.75;;;7.00;99.90;;;;;;10284976;23;20402;-82
2023/01/07 04:30:58;;;;;;;7.53;3.63;;;6.90;99.90;;;;;;10286625;23;20423;-82
2023/01/07 04:34:59;;;;;;;4.70;3.40;;;6.80;99.90;;;;;;10284850;23;20012;-81
2023/01/07 04:39:01;;;;;;;5.85;3.35;;;6.90;99.90;;;;;;10284607;23;20004;-82
2023/01/07 04:43:01;;;;;;;4.55;3.00;;;6.70;99.90;;;;;;10285165;23;20016;-81
2023/01/07 04:47:02;;;;;;;4.55;3.05;;;6.50;99.90;;;;;;10284174;23;20005;-82
2023/01/07 04:51:03;;;;;;;5.60;3.67;;;6.40;99.90;;;;;;10286111;23;20007;-81
2023/01/07 04:55:04;;;;;;;5.25;3.45;;;6.20;99.90;;;;;;10283888;23;20004;-82
2023/01/07 04:59:04;;;;;;;5.90;3.85;;;6.30;99.90;;;;;;10284801;23;20016;-82
2023/01/07 05:03:05;;;;;;;5.32;3.55;;;6.30;99.90;;;;;;10284550;23;20015;-81
2023/01/07 05:07:07;;;;;;;5.63;3.45;;;6.30;99.90;;;;;;10284787;23;20350;-82
2023/01/07 05:11:07;;;;;;;8.43;3.50;;;6.30;99.90;;;;;;10285693;23;20040;-81
2023/01/07 05:15:08;;;;;;;5.68;3.25;;;6.30;99.90;;;;;;10284204;23;20034;-81
2023/01/07 05:19:10;;;;;;;5.18;3.00;;;6.20;99.90;;;;;;10286971;23;20012;-82
2023/01/07 05:23:10;;;;;;;8.55;3.30;;;6.30;99.90;;;;;;10290623;23;20011;-82
2023/01/07 05:27:11;;;;;;;6.43;3.78;;;6.30;99.90;;;;;;10289783;23;20091;-83
2023/01/07 05:31:12;;;;;;;6.68;4.03;;;6.30;99.90;;;;;;10290594;23;20058;-82
2023/01/07 05:35:12;;;;;;;5.50;3.50;;;6.70;99.90;;;;;;10292068;23;20012;-82
2023/01/07 05:39:13;;;;;;;3.92;3.03;;;6.80;99.90;;;;;;10293480;23;20506;-83
2023/01/07 05:43:14;;;;;;;4.80;3.38;;;6.80;99.90;;;;;;10291790;23;20346;-83
2023/01/07 05:47:14;;;;;;;5.28;3.70;;;6.60;99.90;;;;;;10294134;23;20423;-82
2023/01/07 05:51:15;;;;;;;4.82;3.58;;;6.60;99.90;;;;;;10295044;23;20040;-82
2023/01/07 05:55:15;;;;;;;5.70;3.90;;;6.60;99.90;;;;;;10306666;23;20008;-82
2023/01/07 05:59:16;;;;;;;5.28;2.92;;;6.50;99.90;;;;;;10285064;23;20017;-82
2023/01/07 06:03:17;;;;;;;4.85;3.38;;;6.50;99.90;;;;;;10286700;23;20083;-82
2023/01/07 06:07:17;;;;;;;5.75;4.25;;;6.50;99.90;;;;;;10286673;23;20506;-80
2023/01/07 06:11:18;;;;;;;4.90;3.55;;;6.40;99.90;;;;;;10288199;23;20004;-81
2023/01/07 06:15:18;;;;;;;5.05;3.65;;;6.20;99.90;;;;;;10289107;23;20013;-82
2023/01/07 06:19:21;;;;;;;7.55;5.03;;;6.00;99.90;;;;;;10289664;23;20000;-81
2023/01/07 06:23:21;;;;;;;7.05;4.32;;;5.90;99.90;;;;;;10291853;23;20432;-83
2023/01/07 06:27:22;;;;;;;8.38;5.30;;;5.70;99.90;;;;;;10290822;23;20059;-82
2023/01/07 06:31:23;;;;;;;7.10;4.53;;;5.50;99.90;;;;;;10290600;23;20455;-82
2023/01/07 06:35:23;;;;;;;7.07;4.28;;;5.40;99.90;;;;;;10292015;23;20085;-82
2023/01/07 06:39:24;;;;;;;6.85;4.30;;;5.20;99.90;;;;;;10294312;23;20035;-82
2023/01/07 06:43:25;;;;;;;9.15;4.30;;;5.10;99.90;;;;;;10290529;23;20009;-82
2023/01/07 06:47:25;;;;;;;8.48;4.70;;;4.80;99.90;;;;;;10291880;23;20000;-82
2023/01/07 06:51:26;;;;;;;9.57;5.93;;;4.60;99.90;;;;;;10292146;23;20000;-81
2023/01/07 06:55:26;;;;;;;6.82;4.53;;;4.30;99.90;;;;;;10293194;23;20008;-82
2023/01/07 06:59:27;;;;;;;6.85;4.53;;;4.20;99.90;;;;;;10292215;23;20660;-82
2023/01/07 07:03:27;;;;;;;8.02;4.88;;;4.10;99.90;;;;;;10290804;23;20728;-82
2023/01/07 07:07:28;;;;;;;8.23;5.05;;;3.90;99.90;;;;;;10290060;23;20035;-82
2023/01/07 07:11:28;;;;;;;8.90;5.05;;;3.70;99.90;;;;;;10286441;23;20012;-86
2023/01/07 07:15:29;;;;;;;7.57;4.47;;;3.50;99.90;;;;;;10286132;23;20012;-86
2023/01/07 07:19:32;;;;;;;6.75;4.40;;;3.30;99.90;;;;;;10284751;23;20011;-86
2023/01/07 07:23:33;;;;;;;8.32;5.03;;;3.20;99.90;;;;;;10284976;23;20398;-85
2023/01/07 07:27:33;;;;;;;6.82;4.35;;;2.90;99.90;;;;;;10285137;23;20089;-85
2023/01/07 07:31:34;;;;;;;5.53;3.80;;;2.70;99.90;;;;;;10284660;23;20011;-87
2023/01/07 07:35:34;;;;;;;5.75;3.45;;;2.60;99.90;;;;;;10285148;23;20506;-87
2023/01/07 07:39:35;;;;;;;5.32;3.40;;;2.60;99.90;;;;;;10284850;23;20000;-85
2023/01/07 07:43:35;;;;;;;5.57;4.00;;;2.60;99.90;;;;;;10287544;23;20056;-84
2023/01/07 07:47:36;;;;;;;7.28;4.00;;;2.50;99.90;;;;;;10286231;23;20020;-88
2023/01/07 07:51:37;;;;;;;5.57;3.70;;;2.50;99.90;;;;;;10285494;23;20005;-86
2023/01/07 07:55:38;;;;;;;7.32;4.07;;;2.40;99.90;;;;;;10286586;23;20000;-86
2023/01/07 07:59:38;;;;;;;7.32;3.97;;;2.50;99.90;;;;;;10285929;23;20023;-87
2023/01/07 08:03:39;;;;;;;7.53;3.95;;;2.60;99.90;;;;;;10284486;23;20011;-88
2023/01/07 08:07:41;;;;;;;4.32;2.95;;;2.60;99.90;;;;;;10284909;23;20059;-85
2023/01/07 08:11:41;;;;;;;6.50;3.75;;;2.60;99.90;;;;;;10284793;23;20091;-85
2023/01/07 08:15:42;;;;;;;7.35;3.95;;;2.60;99.90;;;;;;10284348;23;20012;-86
2023/01/07 08:19:42;;;;;;;8.65;5.93;;;2.60;99.90;;;;;;10284576;23;20088;-86
2023/01/07 08:23:43;;;;;;;7.35;4.10;;;2.60;99.90;;;;;;10284992;23;20099;-86
2023/01/07 08:27:44;;;;;;;5.25;3.35;;;2.70;99.90;;;;;;10285123;23;20001;-85
2023/01/07 08:31:44;;;;;;;7.40;4.03;;;3.00;99.90;;;;;;10300537;23;20501;-84
2023/01/07 08:35:45;;;;;;;5.03;3.20;;;2.90;99.90;;;;;;10286735;23;20001;-84
2023/01/07 08:39:45;;;;;;;4.85;3.05;;;3.10;99.90;;;;;;10286152;23;20000;-84
2023/01/07 08:43:46;;;;;;;6.55;4.40;;;3.20;99.90;;;;;;10286733;23;20059;-84
2023/01/07 08:47:47;;;;;;;6.43;3.85;;;3.30;99.90;;;;;;10286028;23;20009;-85
2023/01/07 08:51:47;;;;;;;6.45;4.03;;;3.40;99.90;;;;;;10285951;23;20001;-86
2023/01/07 08:55:48;;;;;;;8.32;4.75;;;3.50;99.90;;;;;;10280745;23;20005;-86
2023/01/07 08:59:49;;;;;;;11.85;7.32;;;3.60;99.90;;;;;;10283785;23;20459;-85
2023/01/07 09:03:50;;;;;;;13.60;7.45;;;4.00;99.90;;;;;;10282383;23;20004;-85
2023/01/07 09:07:52;;;;;;;8.20;5.50;;;4.20;99.90;;;;;;10282844;23;20071;-85
2023/01/07 09:11:52;;;;;;;10.48;6.43;;;4.50;99.90;;;;;;10283104;23;20131;-86
2023/01/07 09:15:53;;;;;;;8.27;5.80;;;4.80;99.90;;;;;;10283711;23;20001;-84
2023/01/07 09:19:53;;;;;;;7.07;4.90;;;5.10;99.90;;;;;;10284290;23;20030;-86
2023/01/07 09:23:54;;;;;;;6.30;4.60;;;5.50;99.90;;;;;;10284025;23;20004;-87
2023/01/07 09:27:55;;;;;;;8.48;5.18;;;5.60;99.90;;;;;;10283564;23;20016;-88
2023/01/07 09:31:55;;;;;;;7.00;4.80;;;5.80;99.90;;;;;;10283966;23;20070;-86
2023/01/07 09:35:56;;;;;;;7.68;4.88;;;6.00;99.90;;;;;;10283273;23;20011;-87
2023/01/07 09:39:56;;;;;;;7.32;4.70;;;6.60;99.90;;;;;;10284326;23;20055;-87
2023/01/07 09:44:13;;;;;;;6.93;4.65;;;6.90;99.90;;;;;;10283988;23;20343;-86
2023/01/07 09:48:39;;;;;;;7.65;4.22;;;7.00;99.90;;;;;;10283791;23;20147;-86
2023/01/07 09:52:46;;;;;;;5.90;3.90;;;7.50;99.90;;;;;;10266936;23;20012;-86
2023/01/07 09:56:46;;;;;;;6.00;3.78;;;7.80;99.90;;;;;;10283618;23;20083;-87
2023/01/07 10:01:02;;;;;;;6.43;3.95;;;8.50;99.90;;;;;;10284257;23;20435;-87
2023/01/07 10:05:30;;;;;;;5.55;3.72;;;9.20;99.90;;;;;;10283091;23;20009;-87
2023/01/07 10:09:46;;;;;;;4.95;3.38;;;9.50;99.90;;;;;;10283976;23;20317;-86
2023/01/07 10:13:55;;;;;;;5.25;3.40;;;9.00;99.90;;;;;;10282836;23;20379;-85
2023/01/07 10:18:17;;;;;;;5.00;3.30;;;8.60;99.90;;;;;;10283301;23;20028;-87
2023/01/07 10:22:30;;;;;;;4.05;2.90;;;8.40;99.90;;;;;;10283651;23;20330;-86
2023/01/07 10:26:36;;;;;;;5.68;3.20;;;8.30;99.90;;;;;;10283504;23;20355;-86
2023/01/07 10:30:42;;;;;;;4.70;3.17;;;8.20;99.90;;;;;;10283857;23;20012;-87
2023/01/07 10:34:46;;;;;;;4.18;2.60;;;8.40;99.90;;;;;;10283321;23;20068;-87
2023/01/07 10:38:55;;;;;;;4.55;2.78;;;8.50;99.90;;;;;;10283807;23;20083;-85
2023/01/07 10:43:23;;;;;;;3.60;2.60;;;8.50;99.90;;;;;;10283637;23;20032;-88
2023/01/07 10:47:42;;;;;;;4.07;2.70;;;8.70;99.90;;;;;;10284649;23;20008;-85
2023/01/07 10:52:05;;;;;;;5.80;3.60;;;8.90;99.90;;;;;;10283760;23;20388;-86
2023/01/07 10:56:19;;;;;;;5.38;3.58;;;8.90;99.90;;;;;;10286390;23;20008;-85
2023/01/07 11:00:19;;;;;;;5.85;3.35;;;8.90;99.90;;;;;;10294929;23;20008;-89
2023/01/07 11:04:20;;;;;;;8.43;3.45;;;8.70;99.90;;;;;;10309792;23;20020;-85
2023/01/07 11:08:35;;;;;;;4.25;3.15;;;8.80;99.90;;;;;;10288121;23;20071;-86
2023/01/07 11:12:47;;;;;;;5.15;3.00;;;9.40;99.90;;;;;;10286194;23;20004;-86
2023/01/07 11:16:57;;;;;;;5.80;3.58;;;9.90;99.90;;;;;;10289198;23;20423;-86
2023/01/07 11:20:59;;;;;;;4.55;3.17;;;10.70;99.90;;;;;;10284753;23;20461;-86
2023/01/07 11:25:01;;;;;;;4.28;3.35;;;11.30;99.90;;;;;;10283377;23;20100;-86
2023/01/07 11:29:24;;;;;;;4.70;3.28;;;11.80;99.90;;;;;;10281612;23;20008;-86
2023/01/07 11:33:38;;;;;;;4.68;3.08;;;11.50;99.90;;;;;;10281499;23;20031;-86
2023/01/07 11:37:42;;;;;;;5.35;3.28;;;11.40;99.90;;;;;;10281617;23;20013;-86
2023/01/07 11:42:37;;;;;;;3.63;2.92;;;11.70;99.90;;;;;;10282229;23;20623;-86
2023/01/07 11:46:28;;;;;;;5.18;3.42;;;11.70;99.90;;;;;;10282702;23;20485;-86
2023/01/07 11:50:33;;;;;;;4.53;3.17;;;12.20;99.90;;;;;;10284554;23;20063;-85
2023/01/07 11:54:34;;;;;;;3.17;2.72;;;11.90;99.90;;;;;;10305422;22;20024;-85
2023/01/07 11:58:37;;;;;;;5.13;2.92;;;10.80;99.90;;;;;;10319392;23;20043;-86
2023/01/07 12:02:38;;;;;;;5.40;3.10;;;11.70;99.90;;;;;;10288128;23;20015;-86
2023/01/07 12:06:43;;;;;;;4.07;2.60;;;12.50;99.90;;;;;;10284582;23;20009;-86
2023/01/07 12:10:43;;;;;;;5.03;2.88;;;11.10;99.90;;;;;;10284136;23;20091;-85
2023/01/07 12:14:46;;;;;;;3.70;2.70;;;9.70;99.90;;;;;;10282059;23;20007;-86
2023/01/07 12:19:01;;;;;;;3.33;2.70;;;9.50;99.90;;;;;;10284242;23;20034;-85
2023/01/07 12:23:16;;;;;;;4.18;2.80;;;9.10;99.90;;;;;;10282928;23;20350;-87
2023/01/07 12:27:35;;;;;;;5.13;3.70;;;9.20;99.90;;;;;;10284672;23;20009;-87
2023/01/07 12:31:51;;;;;;;3.95;3.00;;;9.30;99.90;;;;;;10286276;23;20127;-86
2023/01/07 12:35:54;;;;;;;6.55;3.20;;;9.10;99.90;;;;;;10301339;23;20012;-85
2023/01/07 12:40:03;;;;;;;4.53;3.40;;;8.50;99.90;;;;;;10293318;23;20005;-86
2023/01/07 12:44:30;;;;;;;5.22;3.78;;;8.20;99.90;;;;;;10288984;23;20004;-87
2023/01/07 12:48:56;;;;;;;5.85;3.80;;;8.00;99.90;;;;;;10300957;23;20004;-85
2023/01/07 12:53:08;;;;;;;6.53;3.15;;;8.00;99.90;;;;;;10292192;23;20071;-85
2023/01/07 12:57:17;;;;;;;5.47;3.85;;;8.00;99.90;;;;;;10284016;23;20363;-87
2023/01/07 13:01:24;;;;;;;5.32;3.25;;;7.90;99.90;;;;;;10283956;23;20043;-88
2023/01/07 13:05:37;;;;;;;6.88;3.55;;;7.90;99.90;;;;;;10283937;23;20455;-87
2023/01/07 13:09:51;;;;;;;4.70;3.15;;;7.80;99.90;;;;;;10284962;23;20009;-87
2023/01/07 13:13:53;;;;;;;4.20;2.88;;;7.90;99.90;;;;;;10283445;23;20816;-86
2023/01/07 13:18:03;;;;;;;5.47;3.13;;;8.20;99.90;;;;;;10285481;23;19993;-87
2023/01/07 13:22:05;;;;;;;5.15;3.35;;;8.10;99.90;;;;;;10284370;23;20011;-87
2023/01/07 13:26:30;;;;;;;5.82;3.72;;;8.00;99.90;;;;;;10283515;23;20359;-87
2023/01/07 13:30:36;;;;;;;5.45;3.33;;;7.90;99.90;;;;;;10284683;23;20019;-86
2023/01/07 13:35:14;;;;;;;6.20;4.10;;;7.80;99.90;;;;;;10284277;23;20020;-86
2023/01/07 13:39:34;;;;;;;5.07;3.63;;;7.60;99.90;;;;;;10284372;23;19996;-87
2023/01/07 13:44:02;;;;;;;8.07;4.63;;;7.50;99.90;;;;;;10284071;23;20008;-87
2023/01/07 13:48:12;;;;;;;4.55;2.95;;;7.50;99.90;;;;;;10283809;23;20009;-88
2023/01/07 13:52:19;;;;;;;6.47;4.20;;;7.30;99.90;;;;;;10285020;23;20431;-87
2023/01/07 13:56:19;;;;;;;7.10;4.32;;;7.20;99.90;;;;;;10283200;23;20016;-87
2023/01/07 14:00:37;;;;;;;7.35;3.63;;;7.20;99.90;;;;;;10283875;23;20462;-86
2023/01/07 14:05:03;;;;;;;6.03;3.70;;;7.20;99.90;;;;;;10283975;23;20479;-87
2023/01/07 14:09:04;;;;;;;6.05;3.78;;;7.00;99.90;;;;;;10284369;23;20001;-87
2023/01/07 14:13:34;;;;;;;4.70;3.22;;;6.90;99.90;;;;;;10284117;23;20044;-86
2023/01/07 14:17:49;;;;;;;4.97;3.65;;;6.90;99.90;;;;;;10283443;23;20005;-86
2023/01/07 14:22:18;;;;;;;6.75;4.22;;;6.70;99.90;;;;;;10283691;23;20331;-87
2023/01/07 14:26:30;;;;;;;6.85;4.53;;;6.60;99.90;;;;;;10283430;23;20017;-87
2023/01/07 14:30:41;;;;;;;6.50;3.72;;;6.50;99.90;;;;;;10287461;23;20038;-86
2023/01/07 14:34:51;;;;;;;10.88;5.45;;;6.40;99.90;;;;;;10286877;23;20335;-86
2023/01/07 14:38:57;;;;;;;5.80;3.90;;;6.40;99.90;;;;;;10287399;23;20005;-87
2023/01/07 14:43:01;;;;;;;6.57;3.95;;;6.20;99.90;;;;;;10286742;23;20012;-87
2023/01/07 14:47:02;;;;;;;5.38;3.42;;;6.10;99.90;;;;;;10286893;23;20156;-87
2023/01/07 14:51:12;;;;;;;5.85;3.40;;;6.10;99.90;;;;;;10287398;23;20001;-86
2023/01/07 14:55:26;;;;;;;6.00;3.50;;;6.20;99.90;;;;;;10288345;23;20075;-86
2023/01/07 14:59:33;;;;;;;6.00;3.72;;;5.90;99.90;;;;;;10286775;23;20012;-86
2023/01/07 15:03:49;;;;;;;5.30;3.72;;;5.70;99.90;;;;;;10286897;23;20427;-87
2023/01/07 15:15:59;;;;;;;6.18;3.60;;;5.80;99.90;;;;;;10286013;23;20012;-86
2023/01/07 15:16:49;;;;;;;6.40;3.92;;;5.50;99.90;;;;;;10287460;23;20459;-86
2023/01/07 15:21:08;;;;;;;6.82;4.15;;;5.20;99.90;;;;;;10286379;23;20096;-86
2023/01/07 15:25:11;;;;;;;5.25;3.35;;;5.30;99.90;;;;;;10287679;23;20072;-86
2023/01/07 15:29:47;;;;;;;5.05;3.10;;;5.20;99.90;;;;;;10286499;23;20613;-86
2023/01/07 15:34:10;;;;;;;5.30;3.47;;;5.10;99.90;;;;;;10115970;23;20095;-86
2023/01/07 15:38:29;;;;;;;6.43;3.72;;;4.70;99.90;;;;;;10285602;23;20000;-86
2023/01/07 15:42:31;;;;;;;4.43;3.17;;;4.30;99.90;;;;;;10286144;23;20008;-86
2023/01/07 15:46:37;;;;;;;6.80;4.03;;;4.20;99.90;;;;;;10285554;23;20003;-86
2023/01/07 15:50:44;;;;;;;5.68;3.70;;;4.00;99.90;;;;;;10286543;23;20065;-86
2023/01/07 15:54:44;;;;;;;6.25;3.70;;;3.80;99.90;;;;;;10285623;23;20328;-86
2023/01/07 15:58:49;;;;;;;6.63;3.97;;;3.70;99.90;;;;;;10285762;23;20009;-86
2023/01/07 16:02:51;;;;;;;9.43;3.83;;;3.50;99.90;;;;;;10285387;23;20015;-86
2023/01/07 16:06:59;;;;;;;5.97;3.40;;;3.30;99.90;;;;;;10285607;23;20520;-86
2023/01/07 16:11:05;;;;;;;6.50;3.85;;;3.20;99.90;;;;;;10286239;23;20099;-86
2023/01/07 16:15:31;;;;;;;5.55;3.20;;;3.00;99.90;;;;;;10285734;23;20005;-87
2023/01/07 16:19:31;;;;;;;7.20;3.90;;;2.90;99.90;;;;;;10285310;23;20442;-86
2023/01/07 16:23:36;;;;;;;8.15;3.97;;;2.80;99.90;;;;;;10284842;23;20143;-86
2023/01/07 16:27:37;;;;;;;6.85;3.53;;;2.70;99.90;;;;;;10285067;23;20012;-86
2023/01/07 16:31:38;;;;;;;8.07;4.40;;;2.50;99.90;;;;;;10284898;23;20015;-86
2023/01/07 16:35:39;;;;;;;10.45;4.55;;;2.30;99.90;;;;;;10289183;23;20005;-83
2023/01/07 16:39:43;;;;;;;11.93;4.75;;;2.20;99.90;;;;;;10291205;23;20038;-83
2023/01/07 16:43:44;;;;;;;13.23;6.20;;;2.50;99.90;;;;;;10290552;23;20004;-83
2023/01/07 16:47:58;;;;;;;12.35;6.13;;;2.50;99.90;;;;;;10291022;23;20020;-83
2023/01/07 16:52:02;;;;;;;10.85;6.05;;;2.60;99.90;;;;;;10292672;23;20017;-83
2023/01/07 16:56:14;;;;;;;14.38;7.72;;;2.50;99.90;;;;;;10293555;23;19996;-83
2023/01/07 17:00:18;;;;;;;12.57;6.43;;;2.30;99.90;;;;;;10293099;23;20013;-83
2023/01/07 17:04:28;;;;;;;13.10;6.28;;;2.30;99.90;;;;;;10292769;23;20402;-84
2023/01/07 17:08:30;;;;;;;12.77;6.97;;;2.20;99.90;;;;;;10296370;23;20406;-83
2023/01/07 17:12:37;;;;;;;12.38;6.40;;;2.10;99.90;;;;;;10299876;23;20072;-83
2023/01/07 17:16:39;;;;;;;14.13;6.43;;;2.00;99.90;;;;;;10303316;23;20218;-83
2023/01/07 17:20:52;;;;;;;10.02;5.15;;;1.90;99.90;;;;;;10284674;23;20004;-83
2023/01/07 17:25:01;;;;;;;9.95;5.22;;;1.90;99.90;;;;;;10284307;23;20128;-83
2023/01/07 17:29:10;;;;;;;6.47;4.43;;;1.80;99.90;;;;;;10285058;23;20403;-83
2023/01/07 17:33:15;;;;;;;8.63;4.88;;;1.60;99.90;;;;;;10370293;22;20015;-79
2023/01/07 17:37:20;;;;;;;10.82;5.47;;;1.50;99.90;;;;;;10383355;22;20351;-79
2023/01/07 17:45:41;;;;;;;18.05;8.43;;;1.20;99.90;;;;;;10436178;22;20022;-80
2023/01/07 17:49:41;;;;;;;16.90;8.63;;;1.30;99.90;;;;;;10434403;22;20094;-79
2023/01/07 17:53:44;;;;;;;19.65;7.20;;;1.30;99.90;;;;;;10434780;22;20007;-80
2023/01/07 17:57:45;;;;;;;19.13;7.32;;;1.20;99.90;;;;;;10433687;22;20433;-79
2023/01/07 18:01:46;;;;;;;18.40;8.63;;;1.40;99.90;;;;;;10435641;22;20004;-79
2023/01/07 18:05:46;;;;;;;16.15;8.40;;;1.50;99.90;;;;;;10437060;22;20007;-80
2023/01/07 18:09:47;;;;;;;12.57;7.18;;;1.40;99.90;;;;;;10443207;22;20003;-80
2023/01/07 18:13:47;;;;;;;15.52;8.00;;;1.30;99.90;;;;;;10438398;22;20000;-80
2023/01/07 18:17:48;;;;;;;10.93;6.63;;;1.20;99.90;;;;;;10438407;22;20006;-80
2023/01/07 18:21:49;;;;;;;68.43;30.23;;;1.00;99.90;;;;;;10439932;22;20005;-80
2023/01/07 18:25:49;;;;;;;17.70;10.50;;;1.10;99.90;;;;;;10438559;22;20007;-80
2023/01/07 18:29:50;;;;;;;17.67;6.57;;;1.50;99.90;;;;;;10436329;22;20155;-80
2023/01/07 18:33:50;;;;;;;11.98;5.20;;;1.60;99.90;;;;;;10431465;22;20007;-80
2023/01/07 18:37:51;;;;;;;7.90;4.95;;;1.60;99.90;;;;;;10429684;22;20004;-80
2023/01/07 18:41:53;;;;;;;17.75;10.02;;;1.50;99.90;;;;;;10431065;22;20007;-80
2023/01/07 18:45:53;;;;;;;13.95;8.27;;;1.60;99.90;;;;;;10428589;22;20019;-82
2023/01/07 18:49:54;;;;;;;17.10;10.27;;;1.40;99.90;;;;;;10428963;22;20364;-81
2023/01/07 18:53:55;;;;;;;12.85;6.00;;;1.10;99.90;;;;;;10433948;22;20098;-81
2023/01/07 18:57:55;;;;;;;10.20;5.20;;;1.30;99.90;;;;;;10439435;22;20041;-80
2023/01/07 19:01:59;;;;;;;10.90;5.72;;;1.40;99.90;;;;;;10438939;22;20349;-80
2023/01/07 19:06:07;;;;;;;10.90;6.13;;;1.40;99.90;;;;;;10434731;22;20007;-79
2023/01/07 19:10:09;;;;;;;7.85;4.95;;;1.20;99.90;;;;;;10435479;22;20007;-80
2023/01/07 19:14:14;;;;;;;8.13;4.43;;;1.20;99.90;;;;;;10434462;22;20011;-81
2023/01/07 19:18:14;;;;;;;8.85;4.65;;;1.00;99.90;;;;;;10431895;22;19999;-80
2023/01/07 19:22:15;;;;;;;9.10;5.30;;;0.80;99.90;;;;;;10432233;22;20003;-80
2023/01/07 19:26:16;;;;;;;10.15;5.03;;;0.60;99.90;;;;;;10435406;22;20015;-80
2023/01/07 19:30:17;;;;;;;10.55;5.03;;;0.60;99.90;;;;;;10436553;22;20057;-80
2023/01/07 19:34:17;;;;;;;11.02;5.78;;;0.70;99.90;;;;;;10433740;22;20007;-80
2023/01/07 19:38:18;;;;;;;7.25;4.20;;;0.60;99.90;;;;;;10435558;22;20750;-81
2023/01/07 19:42:18;;;;;;;8.55;4.20;;;0.50;99.90;;;;;;10436309;22;20018;-82
2023/01/07 19:46:19;;;;;;;7.20;4.00;;;0.70;99.90;;;;;;10437258;22;20078;-81
2023/01/07 19:50:19;;;;;;;10.80;4.75;;;0.80;99.90;;;;;;10436343;22;20064;-81
2023/01/07 19:54:20;;;;;;;8.30;5.15;;;0.70;99.90;;;;;;10433623;22;20009;-79
2023/01/07 19:58:21;;;;;;;9.50;4.63;;;0.60;99.90;;;;;;10434236;22;20015;-80
2023/01/07 20:02:21;;;;;;;10.88;5.32;;;0.30;99.90;;;;;;10433642;22;20014;-83
2023/01/07 20:06:24;;;;;;;11.68;5.80;;;0.20;99.90;;;;;;10433525;22;20364;-80
2023/01/07 20:10:25;;;;;;;11.57;5.72;;;0.20;99.90;;;;;;10435460;22;20004;-80
2023/01/07 20:14:26;;;;;;;15.23;7.72;;;0.20;99.90;;;;;;10434139;22;20045;-81
2023/01/07 20:18:26;;;;;;;11.48;6.70;;;0.10;99.90;;;;;;10432823;22;20391;-80
2023/01/07 20:22:27;;;;;;;13.13;6.95;;;0.10;99.90;;;;;;10432790;22;20053;-80
2023/01/07 20:26:30;;;;;;;14.95;6.13;;;0.10;99.90;;;;;;10432624;22;20587;-80
2023/01/07 20:30:30;;;;;;;11.48;6.00;;;0.20;99.90;;;;;;10433912;22;20457;-79
2023/01/07 20:34:31;;;;;;;9.07;5.13;;;0.50;99.90;;;;;;10432712;22;20007;-81
2023/01/07 20:38:32;;;;;;;8.82;5.30;;;0.70;99.90;;;;;;10432637;22;20433;-80
2023/01/07 20:42:32;;;;;;;8.93;5.10;;;0.60;99.90;;;;;;10432809;22;20011;-80
2023/01/07 20:46:33;;;;;;;6.97;4.32;;;0.40;99.90;;;;;;10433744;22;20717;-79
2023/01/07 20:50:37;;;;;;;9.00;5.00;;;0.20;99.90;;;;;;10432759;22;20059;-80
2023/01/07 20:54:38;;;;;;;10.30;4.47;;;-0.10;99.90;;;;;;10433004;22;20113;-80
2023/01/07 20:58:39;;;;;;;8.55;4.85;;;-0.10;99.90;;;;;;10432989;22;20003;-80
2023/01/07 21:02:39;;;;;;;8.93;4.80;;;-0.20;99.90;;;;;;10433696;22;20341;-80
2023/01/07 21:06:40;;;;;;;12.52;6.00;;;-0.40;99.90;;;;;;10435037;22;20054;-80
2023/01/07 21:10:42;;;;;;;12.55;7.25;;;-0.40;99.90;;;;;;10433606;22;20011;-80
2023/01/07 21:14:42;;;;;;;12.10;5.88;;;-0.40;99.90;;;;;;10433337;22;20004;-81
2023/01/07 21:18:43;;;;;;;12.10;6.40;;;-0.40;99.90;;;;;;10433477;22;20011;-80
2023/01/07 21:22:44;;;;;;;12.73;6.60;;;-0.50;99.90;;;;;;10434587;22;20026;-80
2023/01/07 21:26:45;;;;;;;12.23;6.13;;;-0.50;99.90;;;;;;10433108;22;20094;-80
2023/01/07 21:30:46;;;;;;;6.10;3.72;;;-0.20;99.90;;;;;;10434223;22;20015;-80
2023/01/07 21:34:46;;;;;;;7.05;4.13;;;-0.10;99.90;;;;;;10432731;22;20014;-80